createdAt,value
2023-03-05T00:01:43.261Z,100145.44
2023-03-05T00:04:15.544Z,100173.09
2023-03-05T00:06:44.610Z,100131.66
2023-03-05T00:09:13.077Z,100135.97
2023-03-05T00:11:41.896Z,100137.69
2023-03-05T00:14:12.496Z,100166.19
2023-03-05T00:16:41.426Z,100142.88
2023-03-05T00:19:11.236Z,100136.81
2023-03-05T00:21:41.985Z,100104.84
2023-03-05T00:24:19.063Z,100140.25
2023-03-05T00:26:47.827Z,100066.00
2023-03-05T00:29:20.187Z,100157.56
2023-03-05T00:31:49.009Z,100143.75
2023-03-05T00:34:19.651Z,100127.31
2023-03-05T00:36:51.261Z,100143.72
2023-03-05T00:39:22.136Z,100116.13
2023-03-05T00:41:51.580Z,100144.59
2023-03-05T00:44:21.807Z,100120.44
2023-03-05T00:46:51.313Z,100123.00
2023-03-05T00:49:20.248Z,100108.31
2023-03-05T00:51:48.978Z,100101.41
2023-03-05T00:54:17.674Z,100101.44
2023-03-05T00:56:46.206Z,100048.75
2023-03-05T00:59:14.830Z,100100.56
2023-03-05T01:01:43.737Z,100118.69
2023-03-05T01:04:12.346Z,100036.69
2023-03-05T01:06:45.451Z,100100.53
2023-03-05T01:09:15.192Z,100110.03
2023-03-05T01:11:43.828Z,100091.88
2023-03-05T01:14:12.885Z,100104.81
2023-03-05T01:16:41.746Z,100030.56
2023-03-05T01:19:11.216Z,100091.84
2023-03-05T01:21:40.372Z,100113.41
2023-03-05T01:24:09.401Z,100076.28
2023-03-05T01:26:38.350Z,100090.97
2023-03-05T01:29:07.180Z,100066.78
2023-03-05T01:31:35.760Z,100088.38
2023-03-05T01:34:04.687Z,100093.56
2023-03-05T01:36:35.614Z,100071.94
2023-03-05T01:39:09.086Z,100097.84
2023-03-05T01:41:47.278Z,100072.81
2023-03-05T01:44:32.482Z,100065.91
2023-03-05T01:47:01.459Z,100043.41
2023-03-05T01:49:36.960Z,100048.56
2023-03-05T01:52:21.291Z,100062.34
2023-03-05T01:54:53.269Z,100089.94
2023-03-05T01:57:33.329Z,100070.06
2023-03-05T02:00:07.575Z,100053.63
2023-03-05T02:02:42.797Z,100077.78
2023-03-05T02:05:17.254Z,100045.88
2023-03-05T02:07:47.895Z,100072.59
2023-03-05T02:10:17.922Z,100051.03
2023-03-05T02:12:47.801Z,100025.19
2023-03-05T02:15:17.527Z,100051.03
2023-03-05T02:17:47.079Z,100020.00
2023-03-05T02:20:25.801Z,100051.91
2023-03-05T02:22:54.601Z,100034.66
2023-03-05T02:25:27.045Z,100035.56
2023-03-05T02:28:16.036Z,99999.31
2023-03-05T02:30:45.516Z,100023.50
2023-03-05T02:33:18.687Z,99995.03
2023-03-05T02:35:47.865Z,100016.59
2023-03-05T02:38:18.568Z,99907.97
2023-03-05T02:40:47.571Z,99990.75
2023-03-05T02:43:17.824Z,100005.41
2023-03-05T02:45:46.407Z,100006.28
2023-03-05T02:48:15.072Z,99994.22
2023-03-05T02:50:45.897Z,100034.75
2023-03-05T02:53:14.554Z,100038.19
2023-03-05T02:55:43.517Z,100017.47
2023-03-05T02:58:12.110Z,100011.44
2023-03-05T03:00:40.707Z,100029.63
2023-03-05T03:03:09.688Z,100015.84
2023-03-05T03:05:38.491Z,99989.97
2023-03-05T03:08:07.471Z,100001.22
2023-03-05T03:10:35.935Z,100002.94
2023-03-05T03:13:04.915Z,100017.63
2023-03-05T03:15:33.659Z,100034.88
2023-03-05T03:18:02.464Z,100042.66
2023-03-05T03:20:31.085Z,100021.97
2023-03-05T03:22:59.645Z,100011.63
2023-03-05T03:25:28.550Z,99987.53
2023-03-05T03:27:57.333Z,99996.19
2023-03-05T03:30:25.987Z,100006.53
2023-03-05T03:32:54.720Z,99964.25
2023-03-05T03:35:23.296Z,100011.72
2023-03-05T03:37:52.037Z,99986.69
2023-03-05T03:40:20.853Z,99915.13
2023-03-05T03:42:51.948Z,99988.44
2023-03-05T03:45:22.881Z,99974.63
2023-03-05T03:47:52.880Z,99977.22
2023-03-05T03:50:22.425Z,99986.69
2023-03-05T03:52:51.096Z,99940.13
2023-03-05T03:55:20.048Z,99975.47
2023-03-05T03:57:48.727Z,99991.88
2023-03-05T04:00:18.078Z,99983.22
2023-03-05T04:02:46.755Z,99971.13
2023-03-05T04:05:15.635Z,99971.97
2023-03-05T04:07:46.143Z,99980.56
2023-03-05T04:10:15.206Z,99943.44
2023-03-05T04:12:44.261Z,99942.47
2023-03-05T04:15:13.275Z,99971.69
2023-03-05T04:17:41.960Z,99966.44
2023-03-05T04:20:11.865Z,99954.28
2023-03-05T04:22:40.707Z,99868.13
2023-03-05T04:25:10.478Z,99939.59
2023-03-05T04:27:43.605Z,99904.22
2023-03-05T04:30:17.614Z,99905.94
2023-03-05T04:32:46.406Z,99929.94
2023-03-05T04:35:15.039Z,99923.09
2023-03-05T04:37:43.546Z,99953.25
2023-03-05T04:40:12.893Z,99922.22
2023-03-05T04:42:41.764Z,99900.63
2023-03-05T04:45:11.556Z,99904.91
2023-03-05T04:47:41.104Z,99926.41
2023-03-05T04:50:10.874Z,99923.75
2023-03-05T04:52:44.185Z,99939.25
2023-03-05T04:55:14.554Z,99934.03
2023-03-05T04:57:43.740Z,99910.81
2023-03-05T05:00:20.516Z,99911.63
2023-03-05T05:02:51.345Z,99848.00
2023-03-05T05:05:24.030Z,99925.44
2023-03-05T05:07:57.850Z,99878.09
2023-03-05T05:10:27.679Z,99916.91
2023-03-05T05:12:56.310Z,99928.16
2023-03-05T05:15:25.281Z,99938.47
2023-03-05T05:17:54.459Z,99891.94
2023-03-05T05:20:25.769Z,99923.78
2023-03-05T05:22:54.526Z,99936.66
2023-03-05T05:25:23.468Z,99903.06
2023-03-05T05:27:52.237Z,99895.31
2023-03-05T05:30:20.798Z,99909.94
2023-03-05T05:32:49.571Z,99890.84
2023-03-05T05:35:18.400Z,99788.38
2023-03-05T05:37:47.191Z,99864.75
2023-03-05T05:40:16.469Z,99877.47
2023-03-05T05:42:45.808Z,99860.00
2023-03-05T05:45:14.650Z,99865.03
2023-03-05T05:47:43.623Z,99871.50
2023-03-05T05:50:12.766Z,99852.34
2023-03-05T05:52:41.655Z,99851.22
2023-03-05T05:55:11.075Z,99869.75
2023-03-05T05:57:40.083Z,99882.31
2023-03-05T06:00:15.054Z,99859.53
2023-03-05T06:02:44.373Z,99848.69
2023-03-05T06:05:15.698Z,99883.09
2023-03-05T06:07:45.578Z,99847.69
2023-03-05T06:10:14.673Z,99874.22
2023-03-05T06:12:43.561Z,99878.28
2023-03-05T06:15:12.458Z,99858.34
2023-03-05T06:17:41.234Z,99834.91
2023-03-05T06:20:10.714Z,99850.88
2023-03-05T06:22:41.091Z,99831.56
2023-03-05T06:25:10.594Z,99850.00
2023-03-05T06:27:40.255Z,99844.59
2023-03-05T06:30:09.713Z,99828.31
2023-03-05T06:32:38.589Z,99820.47
2023-03-05T06:35:07.741Z,99822.19
2023-03-05T06:37:36.681Z,99822.00
2023-03-05T06:40:06.392Z,99833.63
2023-03-05T06:42:36.027Z,99819.69
2023-03-05T06:45:05.207Z,99844.84
2023-03-05T06:47:34.312Z,99835.63
2023-03-05T06:50:03.079Z,99821.81
2023-03-05T06:52:31.942Z,99760.47
2023-03-05T06:55:00.734Z,99836.47
2023-03-05T06:57:29.695Z,99755.94
2023-03-05T06:59:58.593Z,99806.88
2023-03-05T07:02:27.348Z,99820.78
2023-03-05T07:04:56.237Z,99809.06
2023-03-05T07:07:25.118Z,99810.78
2023-03-05T07:09:54.462Z,99809.06
2023-03-05T07:12:23.317Z,99800.59
2023-03-05T07:14:52.132Z,99791.75
2023-03-05T07:17:21.027Z,99797.84
2023-03-05T07:19:49.951Z,99807.91
2023-03-05T07:22:18.710Z,99778.16
2023-03-05T07:24:50.851Z,99778.16
2023-03-05T07:27:24.188Z,99803.94
2023-03-05T07:29:52.858Z,99780.56
2023-03-05T07:32:21.730Z,99737.34
2023-03-05T07:34:50.562Z,99748.09
2023-03-05T07:37:19.450Z,99777.34
2023-03-05T07:39:48.168Z,99774.41
2023-03-05T07:42:17.128Z,99763.88
2023-03-05T07:44:56.669Z,99763.78
2023-03-05T07:47:26.126Z,99638.03
2023-03-05T07:49:55.860Z,99686.66
2023-03-05T07:52:24.641Z,99746.00
2023-03-05T07:54:53.491Z,99734.25
2023-03-05T07:57:22.193Z,99666.47
2023-03-05T07:59:51.103Z,99727.50
2023-03-05T08:02:20.862Z,99740.38
2023-03-05T08:04:49.802Z,99724.47
2023-03-05T08:07:18.577Z,99729.78
2023-03-05T08:09:47.451Z,99740.22
2023-03-05T08:12:16.264Z,99724.84
2023-03-05T08:14:45.048Z,99714.06
2023-03-05T08:17:13.780Z,99721.50
2023-03-05T08:19:42.564Z,99679.25
2023-03-05T08:22:11.703Z,99729.97
2023-03-05T08:24:40.469Z,99708.50
2023-03-05T08:27:09.412Z,99712.06
2023-03-05T08:29:38.080Z,99689.06
2023-03-05T08:32:07.148Z,99703.13
2023-03-05T08:34:36.150Z,99687.78
2023-03-05T08:37:04.990Z,99648.34
2023-03-05T08:39:33.802Z,99690.69
2023-03-05T08:42:02.774Z,99689.88
2023-03-05T08:44:31.914Z,99675.56
2023-03-05T08:47:00.863Z,99692.16
2023-03-05T08:49:29.695Z,99640.72
2023-03-05T08:51:58.499Z,99673.22
2023-03-05T08:54:29.229Z,99668.84
2023-03-05T08:56:58.113Z,99629.66
2023-03-05T08:59:26.911Z,99657.84
2023-03-05T09:01:55.481Z,99661.50
2023-03-05T09:04:24.294Z,99643.63
2023-03-05T09:06:53.181Z,99628.41
2023-03-05T09:09:23.639Z,99620.94
2023-03-05T09:11:52.777Z,99627.81
2023-03-05T09:14:21.835Z,99643.59
2023-03-05T09:16:50.752Z,99639.28
2023-03-05T09:19:19.463Z,99618.78
2023-03-05T09:21:48.360Z,99630.03
2023-03-05T09:24:17.629Z,99634.31
2023-03-05T09:26:49.053Z,99596.25
2023-03-05T09:29:17.969Z,99624.34
2023-03-05T09:31:46.791Z,99632.13
2023-03-05T09:34:15.923Z,99599.59
2023-03-05T09:36:44.652Z,99538.63
2023-03-05T09:39:13.512Z,99630.41
2023-03-05T09:42:00.240Z,99621.78
2023-03-05T09:44:35.526Z,99610.59
2023-03-05T09:47:40.335Z,99617.38
2023-03-05T09:50:09.027Z,99614.97
2023-03-05T09:53:08.451Z,99609.72
2023-03-05T09:55:45.467Z,99592.66
2023-03-05T09:58:32.738Z,99602.97
2023-03-05T10:01:06.428Z,99575.56
2023-03-05T10:04:02.683Z,99593.66
2023-03-05T10:06:54.207Z,99565.97
2023-03-05T10:10:04.294Z,99597.56
2023-03-05T10:12:49.989Z,99583.06
2023-03-05T10:15:25.836Z,99550.38
2023-03-05T10:18:06.229Z,99566.75
2023-03-05T10:20:55.311Z,99546.19
2023-03-05T10:23:39.752Z,99566.81
2023-03-05T10:26:46.180Z,99563.66
2023-03-05T10:29:17.769Z,99567.13
2023-03-05T10:31:58.586Z,99548.22
2023-03-05T10:35:10.914Z,99555.91
2023-03-05T10:38:13.210Z,99560.47
2023-03-05T10:40:52.971Z,99538.50
2023-03-05T10:43:36.951Z,99556.44
2023-03-05T10:46:06.233Z,99417.69
2023-03-05T10:49:00.125Z,99537.25
2023-03-05T10:51:41.927Z,99520.94
2023-03-05T10:54:15.805Z,99537.25
2023-03-05T10:56:44.554Z,99544.28
2023-03-05T10:59:13.669Z,99450.91
2023-03-05T11:01:42.908Z,99535.75
2023-03-05T11:04:31.191Z,99502.47
2023-03-05T11:06:59.906Z,99502.41
2023-03-05T11:09:33.024Z,99433.97
2023-03-05T11:12:12.088Z,99520.50
2023-03-05T11:14:44.957Z,99505.97
2023-03-05T11:17:29.196Z,99520.72
2023-03-05T11:20:18.757Z,99468.47
2023-03-05T11:23:12.606Z,99507.13
2023-03-05T11:26:07.820Z,99483.13
2023-03-05T11:29:01.221Z,99460.81
2023-03-05T11:31:34.484Z,99508.03
2023-03-05T11:34:09.186Z,99500.34
2023-03-05T11:36:43.852Z,99502.28
2023-03-05T11:39:17.798Z,99460.38
2023-03-05T11:41:52.506Z,99492.88
2023-03-05T11:44:42.172Z,99496.59
2023-03-05T11:47:13.629Z,99479.34
2023-03-05T11:49:46.930Z,99474.31
2023-03-05T11:52:35.347Z,99449.47
2023-03-05T11:55:07.304Z,99482.13
2023-03-05T11:58:08.811Z,99472.66
2023-03-05T12:00:39.229Z,99462.53
2023-03-05T12:03:15.482Z,99475.28
2023-03-05T12:05:48.062Z,99447.84
2023-03-05T12:08:23.817Z,99435.94
2023-03-05T12:10:53.764Z,99437.81
2023-03-05T12:13:36.553Z,99437.81
2023-03-05T12:16:39.835Z,99471.31
2023-03-05T12:19:31.584Z,99474.88
2023-03-05T12:22:01.197Z,99447.56
2023-03-05T12:24:30.104Z,99467.34
2023-03-05T12:27:04.856Z,99454.56
2023-03-05T12:29:53.383Z,99432.38
2023-03-05T12:32:34.768Z,99461.56
2023-03-05T12:35:27.027Z,99454.69
2023-03-05T12:37:55.943Z,99459.00
2023-03-05T12:40:27.516Z,99447.06
2023-03-05T12:43:14.880Z,99430.91
2023-03-05T12:45:44.038Z,99455.75
2023-03-05T12:48:13.516Z,99460.09
2023-03-05T12:50:43.958Z,99451.44
2023-03-05T12:53:19.798Z,99460.13
2023-03-05T12:56:14.240Z,99454.13
2023-03-05T12:58:52.840Z,99346.09
2023-03-05T13:01:39.872Z,99418.19
2023-03-05T13:04:34.105Z,99425.16
2023-03-05T13:07:07.093Z,99428.59
2023-03-05T13:09:37.134Z,99428.66
2023-03-05T13:12:13.883Z,99452.66
2023-03-05T13:14:46.382Z,99426.91
2023-03-05T13:17:31.559Z,99426.06
2023-03-05T13:20:02.378Z,99432.09
2023-03-05T13:22:32.716Z,99419.16
2023-03-05T13:25:16.780Z,99402.09
2023-03-05T13:27:45.617Z,99421.03
2023-03-05T13:30:26.618Z,99424.50
2023-03-05T13:33:01.114Z,99416.03
2023-03-05T13:35:31.488Z,99449.53
2023-03-05T13:38:01.055Z,99460.81
2023-03-05T13:40:32.768Z,99455.66
2023-03-05T13:43:14.610Z,99447.09
2023-03-05T13:45:45.273Z,99407.66
2023-03-05T13:48:20.587Z,99419.72
2023-03-05T13:50:58.956Z,99420.53
2023-03-05T13:53:30.631Z,99440.38
2023-03-05T13:56:07.063Z,99404.41
2023-03-05T13:58:45.017Z,99420.66
2023-03-05T14:01:19.262Z,99420.72
2023-03-05T14:03:52.324Z,99369.25
2023-03-05T14:06:23.661Z,99317.03
2023-03-05T14:08:56.050Z,99398.47
2023-03-05T14:11:25.168Z,99371.88
2023-03-05T14:14:06.456Z,99401.97
2023-03-05T14:16:37.946Z,99395.09
2023-03-05T14:19:09.685Z,99399.38
2023-03-05T14:21:51.692Z,99409.78
2023-03-05T14:24:29.183Z,99393.41
2023-03-05T14:27:06.356Z,99386.59
2023-03-05T14:29:35.976Z,99398.56
2023-03-05T14:32:08.263Z,99335.03
2023-03-05T14:34:40.925Z,99402.03
2023-03-05T14:37:19.016Z,99410.63
2023-03-05T14:39:54.299Z,99395.19
2023-03-05T14:42:27.804Z,99404.56
2023-03-05T14:44:58.881Z,99405.47
2023-03-05T14:47:28.962Z,99370.25
2023-03-05T14:49:57.759Z,99370.28
2023-03-05T14:52:27.048Z,99394.28
2023-03-05T14:54:56.732Z,99381.44
2023-03-05T14:57:29.442Z,99355.75
2023-03-05T14:59:58.419Z,99296.56
2023-03-05T15:02:28.396Z,99389.16
2023-03-05T15:04:57.751Z,99373.69
2023-03-05T15:07:33.455Z,99373.69
2023-03-05T15:10:02.097Z,99368.56
2023-03-05T15:12:30.954Z,99313.75
2023-03-05T15:14:59.541Z,99397.78
2023-03-05T15:17:48.813Z,99414.22
2023-03-05T15:20:24.543Z,99392.63
2023-03-05T15:22:54.174Z,99361.75
2023-03-05T15:25:27.246Z,99392.63
2023-03-05T15:27:56.532Z,99339.47
2023-03-05T15:30:31.882Z,99367.81
2023-03-05T15:33:04.403Z,99367.81
2023-03-05T15:35:33.876Z,99373.84
2023-03-05T15:38:02.663Z,99399.63
2023-03-05T15:40:31.831Z,99395.38
2023-03-05T15:43:02.945Z,99391.97
2023-03-05T15:45:32.223Z,99403.16
2023-03-05T15:48:01.006Z,99416.91
2023-03-05T15:50:30.277Z,99409.13
2023-03-05T15:52:59.645Z,99365.41
2023-03-05T15:55:28.853Z,99367.13
2023-03-05T15:57:58.107Z,99382.47
2023-03-05T16:00:31.560Z,99375.66
2023-03-05T16:03:00.580Z,99372.22
2023-03-05T16:05:30.214Z,99397.94
2023-03-05T16:08:01.314Z,99363.63
2023-03-05T16:10:31.134Z,99379.03
2023-03-05T16:13:07.604Z,99396.25
2023-03-05T16:15:41.042Z,99342.16
2023-03-05T16:18:13.348Z,99353.28
2023-03-05T16:20:42.363Z,99291.59
2023-03-05T16:23:11.259Z,99373.94
2023-03-05T16:25:39.965Z,99388.47
2023-03-05T16:28:08.949Z,99358.44
2023-03-05T16:30:38.845Z,99357.56
2023-03-05T16:33:08.165Z,99382.41
2023-03-05T16:35:36.935Z,99344.66
2023-03-05T16:38:06.607Z,99319.78
2023-03-05T16:41:06.321Z,99358.34
2023-03-05T16:43:28.035Z,99353.16
2023-03-05T16:45:56.414Z,99276.03
2023-03-05T16:48:25.319Z,99360.03
2023-03-05T16:50:54.161Z,99350.56
2023-03-05T16:53:25.866Z,99333.44
2023-03-05T16:55:54.788Z,99372.03
2023-03-05T16:58:23.711Z,99355.75
2023-03-05T17:00:52.596Z,99348.88
2023-03-05T17:03:21.679Z,99290.63
2023-03-05T17:05:50.319Z,99375.44
2023-03-05T17:08:19.269Z,99337.75
2023-03-05T17:10:48.501Z,99351.38
2023-03-05T17:13:17.339Z,99344.47
2023-03-05T17:15:46.558Z,99335.91
2023-03-05T17:18:15.348Z,99340.16
2023-03-05T17:20:43.706Z,99291.41
2023-03-05T17:23:12.466Z,99274.22
2023-03-05T17:25:41.408Z,99340.13
2023-03-05T17:28:11.140Z,99369.28
2023-03-05T17:30:39.944Z,99332.41
2023-03-05T17:33:09.159Z,99341.00
2023-03-05T17:35:38.047Z,99334.09
2023-03-05T17:38:11.656Z,99337.47
2023-03-05T17:40:40.486Z,99340.91
2023-03-05T17:43:09.323Z,99359.78
2023-03-05T17:45:38.329Z,99370.03
2023-03-05T17:48:09.341Z,99338.31
2023-03-05T17:50:38.584Z,99336.59
2023-03-05T17:53:07.797Z,99368.34
2023-03-05T17:55:36.480Z,99340.94
2023-03-05T17:58:05.479Z,99320.25
2023-03-05T18:00:34.226Z,99224.38
2023-03-05T18:03:03.250Z,99359.69
2023-03-05T18:05:32.265Z,99262.84
2023-03-05T18:08:03.226Z,99310.72
2023-03-05T18:10:33.060Z,99339.91
2023-03-05T18:13:02.268Z,99368.25
2023-03-05T18:15:31.183Z,99356.22
2023-03-05T18:17:59.833Z,99361.38
2023-03-05T18:20:39.322Z,99327.97
2023-03-05T18:23:08.500Z,99347.63
2023-03-05T18:25:37.357Z,99346.75
2023-03-05T18:28:14.644Z,99323.59
2023-03-05T18:30:44.662Z,99328.72
2023-03-05T18:33:33.785Z,99350.13
2023-03-05T18:36:03.125Z,99268.81
2023-03-05T18:38:32.954Z,99325.25
2023-03-05T18:41:04.160Z,99353.56
2023-03-05T18:43:33.464Z,99335.56
2023-03-05T18:46:05.519Z,99333.81
2023-03-05T18:48:35.074Z,99318.41
2023-03-05T18:51:04.164Z,99314.94
2023-03-05T18:53:33.364Z,99344.13
2023-03-05T18:56:02.868Z,99326.09
2023-03-05T18:58:31.528Z,99310.72
2023-03-05T19:01:00.245Z,99352.66
2023-03-05T19:03:29.169Z,99315.78
2023-03-05T19:05:58.466Z,99344.88
2023-03-05T19:08:27.293Z,99334.56
2023-03-05T19:10:56.286Z,99286.50
2023-03-05T19:13:40.304Z,99310.50
2023-03-05T19:16:10.934Z,99343.06
2023-03-05T19:19:16.013Z,99328.53
2023-03-05T19:21:47.816Z,99341.34
2023-03-05T19:24:17.517Z,99243.72
2023-03-05T19:26:46.407Z,99331.94
2023-03-05T19:29:16.174Z,99307.09
2023-03-05T19:31:44.777Z,99321.69
2023-03-05T19:34:13.649Z,99323.41
2023-03-05T19:36:42.330Z,99335.44
2023-03-05T19:39:10.934Z,99328.50
2023-03-05T19:41:39.810Z,99329.34
2023-03-05T19:44:08.446Z,99342.16
2023-03-05T19:46:37.616Z,99314.72
2023-03-05T19:49:06.417Z,99276.19
2023-03-05T19:51:35.209Z,99356.75
2023-03-05T19:54:07.143Z,99350.81
2023-03-05T19:56:39.199Z,99367.09
2023-03-05T19:59:08.406Z,99255.69
2023-03-05T20:01:37.704Z,99260.75
2023-03-05T20:04:07.231Z,99347.34
2023-03-05T20:06:36.006Z,99304.50
2023-03-05T20:09:07.572Z,99337.06
2023-03-05T20:11:37.028Z,99366.22
2023-03-05T20:14:05.906Z,99335.34
2023-03-05T20:16:37.226Z,99373.13
2023-03-05T20:19:08.473Z,99323.44
2023-03-05T20:21:42.511Z,99352.47
2023-03-05T20:24:20.304Z,99357.66
2023-03-05T20:26:49.752Z,99361.94
2023-03-05T20:29:18.992Z,99347.38
2023-03-05T20:31:48.521Z,99343.94
2023-03-05T20:34:20.550Z,99362.78
2023-03-05T20:36:49.908Z,99366.19
2023-03-05T20:39:18.719Z,99357.66
2023-03-05T20:41:47.756Z,99343.88
2023-03-05T20:44:17.721Z,99316.41
2023-03-05T20:47:13.313Z,99347.25
2023-03-05T20:49:43.008Z,99345.53
2023-03-05T20:52:12.398Z,99345.47
2023-03-05T20:54:42.110Z,99330.13
2023-03-05T20:57:10.856Z,99339.47
2023-03-05T20:59:42.587Z,99341.13
2023-03-05T21:02:11.605Z,99342.06
2023-03-05T21:04:40.601Z,99363.44
2023-03-05T21:07:10.439Z,99359.13
2023-03-05T21:09:41.588Z,99365.06
2023-03-05T21:12:10.696Z,99349.72
2023-03-05T21:14:41.270Z,99347.09
2023-03-05T21:17:10.394Z,99376.19
2023-03-05T21:19:41.330Z,99374.44
2023-03-05T21:22:09.875Z,99333.31
2023-03-05T21:25:13.015Z,99361.47
2023-03-05T21:27:41.375Z,99341.72
2023-03-05T21:30:11.929Z,99339.09
2023-03-05T21:32:40.690Z,99273.09
2023-03-05T21:35:17.691Z,99345.91
2023-03-05T21:37:46.630Z,99260.44
2023-03-05T21:40:18.120Z,99354.31
2023-03-05T21:42:47.422Z,99354.31
2023-03-05T21:45:18.841Z,99373.16
2023-03-05T21:47:48.358Z,99291.81
2023-03-05T21:50:17.860Z,99352.56
2023-03-05T21:52:47.046Z,99373.91
2023-03-05T21:55:19.440Z,99404.78
2023-03-05T21:57:48.255Z,99391.09
2023-03-05T22:00:23.176Z,99317.41
2023-03-05T22:02:52.413Z,99395.31
2023-03-05T22:05:21.590Z,99399.59
2023-03-05T22:07:50.354Z,99413.19
2023-03-05T22:10:21.118Z,99418.28
2023-03-05T22:13:11.853Z,99416.50
2023-03-05T22:15:52.318Z,99392.38
2023-03-05T22:18:24.252Z,99397.47
2023-03-05T22:20:53.699Z,99392.34
2023-03-05T22:23:24.857Z,99380.25
2023-03-05T22:26:04.066Z,99370.72
2023-03-05T22:28:34.219Z,99385.28
2023-03-05T22:31:03.273Z,99387.84
2023-03-05T22:33:32.869Z,99411.81
2023-03-05T22:36:01.861Z,99416.88
2023-03-05T22:38:31.082Z,99431.53
2023-03-05T22:40:59.869Z,99419.47
2023-03-05T22:43:28.480Z,99383.41
2023-03-05T22:45:57.154Z,99427.91
2023-03-05T22:48:25.976Z,99428.78
2023-03-05T22:50:58.047Z,99388.34
2023-03-05T22:53:26.891Z,99384.91
2023-03-05T22:55:55.911Z,99388.25
2023-03-05T22:58:24.689Z,99390.75
2023-03-05T23:00:53.326Z,99397.66
2023-03-05T23:03:22.485Z,99393.34
2023-03-05T23:05:51.302Z,99354.00
2023-03-05T23:08:20.000Z,99385.75
2023-03-05T23:10:49.585Z,99377.97
2023-03-05T23:13:18.438Z,99407.91
2023-03-05T23:15:49.774Z,99401.78
2023-03-05T23:18:18.638Z,99412.09
2023-03-05T23:20:47.272Z,99401.00
2023-03-05T23:23:16.064Z,99381.25
2023-03-05T23:25:44.820Z,99431.06
2023-03-05T23:28:13.582Z,99415.63
2023-03-05T23:30:43.921Z,99402.78
2023-03-05T23:33:24.579Z,99424.31
2023-03-05T23:35:58.967Z,99413.97
2023-03-05T23:38:30.541Z,99412.22
2023-03-05T23:41:01.759Z,99386.59
2023-03-05T23:43:30.836Z,99457.03
2023-03-05T23:46:01.290Z,99348.16
2023-03-05T23:48:31.170Z,99354.13
2023-03-05T23:50:59.852Z,99438.91
2023-03-05T23:53:33.577Z,99407.19
2023-03-05T23:56:02.573Z,99416.69
2023-03-05T23:58:31.224Z,99425.94
